createdAt,value
2017-07-17T00:01:56.389Z,24.08
2017-07-17T00:04:23.854Z,24.01
2017-07-17T00:06:51.394Z,24.02
2017-07-17T00:09:18.869Z,23.99
2017-07-17T00:11:46.406Z,23.95
2017-07-17T00:14:13.970Z,23.90
2017-07-17T00:16:41.787Z,23.90
2017-07-17T00:19:09.294Z,23.87
2017-07-17T00:21:36.845Z,23.82
2017-07-17T00:24:04.329Z,23.87
2017-07-17T00:26:31.797Z,23.94
2017-07-17T00:28:59.322Z,23.90
2017-07-17T00:31:26.785Z,23.93
2017-07-17T00:33:54.283Z,23.94
2017-07-17T00:36:21.793Z,23.92
2017-07-17T00:38:49.285Z,23.84
2017-07-17T00:41:16.834Z,23.70
2017-07-17T00:43:44.370Z,23.69
2017-07-17T00:46:11.871Z,23.69
2017-07-17T00:48:39.358Z,23.68
2017-07-17T00:51:06.817Z,23.68
2017-07-17T00:53:34.336Z,23.68
2017-07-17T00:56:01.857Z,23.69
2017-07-17T00:58:29.415Z,23.67
2017-07-17T01:00:56.989Z,23.54
2017-07-17T01:03:24.542Z,23.57
2017-07-17T01:05:52.030Z,23.35
2017-07-17T01:08:19.499Z,23.39
2017-07-17T01:10:46.983Z,23.18
2017-07-17T01:13:14.450Z,23.18
2017-07-17T01:15:42.283Z,23.18
2017-07-17T01:18:09.745Z,23.20
2017-07-17T01:20:37.229Z,23.20
2017-07-17T01:23:04.693Z,23.10
2017-07-17T01:25:32.286Z,23.05
2017-07-17T01:27:59.981Z,22.96
2017-07-17T01:30:27.514Z,22.88
2017-07-17T01:32:55.010Z,22.96
2017-07-17T01:35:22.477Z,22.85
2017-07-17T01:37:50.053Z,22.85
2017-07-17T01:40:18.049Z,22.76
2017-07-17T01:42:45.562Z,22.73
2017-07-17T01:45:13.031Z,22.72
2017-07-17T01:47:40.514Z,22.76
2017-07-17T01:50:07.998Z,22.74
2017-07-17T01:52:35.634Z,22.72
2017-07-17T01:55:03.158Z,22.71
2017-07-17T01:57:30.761Z,22.63
2017-07-17T01:59:58.233Z,22.56
2017-07-17T02:02:25.842Z,22.55
2017-07-17T02:04:54.070Z,22.59
2017-07-17T02:07:21.569Z,22.56
2017-07-17T02:09:49.058Z,22.52
2017-07-17T02:12:16.585Z,22.50
2017-07-17T02:14:44.070Z,22.36
2017-07-17T02:17:11.986Z,22.34
2017-07-17T02:19:39.469Z,22.31
2017-07-17T02:22:07.025Z,22.30
2017-07-17T02:24:34.545Z,22.33
2017-07-17T02:27:02.014Z,22.38
2017-07-17T02:29:29.850Z,22.45
2017-07-17T02:31:57.402Z,22.47
2017-07-17T02:34:24.901Z,22.48
2017-07-17T02:36:52.382Z,22.54
2017-07-17T02:39:19.897Z,22.52
2017-07-17T02:41:47.402Z,22.36
2017-07-17T02:44:14.909Z,22.46
2017-07-17T02:46:42.382Z,22.44
2017-07-17T02:49:09.854Z,22.42
2017-07-17T02:51:37.345Z,22.35
2017-07-17T02:54:05.170Z,22.37
2017-07-17T02:56:32.698Z,22.31
2017-07-17T02:59:00.200Z,22.38
2017-07-17T03:01:27.686Z,22.36
2017-07-17T03:03:55.173Z,22.27
2017-07-17T03:06:22.694Z,22.27
2017-07-17T03:08:50.163Z,22.29
2017-07-17T03:11:17.724Z,22.30
2017-07-17T03:13:45.264Z,22.28
2017-07-17T03:16:12.765Z,22.25
2017-07-17T03:18:40.238Z,22.30
2017-07-17T03:21:07.721Z,22.26
2017-07-17T03:23:57.806Z,22.28
2017-07-17T03:26:25.366Z,22.17
2017-07-17T03:28:52.851Z,22.03
2017-07-17T03:31:20.381Z,21.97
2017-07-17T03:33:47.842Z,21.97
2017-07-17T03:36:15.331Z,22.11
2017-07-17T03:38:42.855Z,22.10
2017-07-17T03:41:10.410Z,22.10
2017-07-17T03:43:37.970Z,22.11
2017-07-17T03:46:05.536Z,22.11
2017-07-17T03:48:33.081Z,22.14
2017-07-17T03:51:00.545Z,22.14
2017-07-17T03:53:28.343Z,22.08
2017-07-17T03:55:55.836Z,22.13
2017-07-17T03:58:23.426Z,22.20
2017-07-17T04:00:50.981Z,22.15
2017-07-17T04:03:18.542Z,22.01
2017-07-17T04:05:46.009Z,22.07
2017-07-17T04:08:13.514Z,22.12
2017-07-17T04:10:41.013Z,22.14
2017-07-17T04:13:08.573Z,22.12
2017-07-17T04:15:36.173Z,22.23
2017-07-17T04:18:04.032Z,22.24
2017-07-17T04:20:31.567Z,22.16
2017-07-17T04:22:59.109Z,22.24
2017-07-17T04:25:26.597Z,22.30
2017-07-17T04:27:54.073Z,22.34
2017-07-17T04:30:22.110Z,22.36
2017-07-17T04:32:49.658Z,22.39
2017-07-17T04:35:17.149Z,22.44
2017-07-17T04:37:44.635Z,22.44
2017-07-17T04:40:12.233Z,22.46
2017-07-17T04:42:40.804Z,22.48
2017-07-17T04:45:08.370Z,22.45
2017-07-17T04:47:35.939Z,22.47
2017-07-17T04:50:03.532Z,22.52
2017-07-17T04:52:30.999Z,22.58
2017-07-17T04:54:59.105Z,22.58
2017-07-17T04:57:26.605Z,22.67
2017-07-17T04:59:54.203Z,22.62
2017-07-17T05:02:21.736Z,22.71
2017-07-17T05:04:49.282Z,22.53
2017-07-17T05:07:16.785Z,22.57
2017-07-17T05:09:44.303Z,22.64
2017-07-17T05:12:11.795Z,22.82
2017-07-17T05:14:39.286Z,22.85
2017-07-17T05:17:06.837Z,22.83
2017-07-17T05:19:34.303Z,23.00
2017-07-17T05:22:01.873Z,23.04
2017-07-17T05:24:29.351Z,23.17
2017-07-17T05:26:56.846Z,23.17
2017-07-17T05:29:24.326Z,23.21
2017-07-17T05:31:51.797Z,23.26
2017-07-17T05:34:19.289Z,23.26
2017-07-17T05:36:46.806Z,23.26
2017-07-17T05:39:14.295Z,23.34
2017-07-17T05:41:41.782Z,23.40
2017-07-17T05:44:09.421Z,23.38
2017-07-17T05:46:36.894Z,23.30
2017-07-17T05:49:04.389Z,23.30
2017-07-17T05:51:31.853Z,23.45
2017-07-17T05:53:59.407Z,23.51
2017-07-17T05:56:26.966Z,23.57
2017-07-17T05:58:54.565Z,23.57
2017-07-17T06:01:22.050Z,23.65
2017-07-17T06:03:49.513Z,23.44
2017-07-17T06:06:17.160Z,23.39
2017-07-17T06:08:44.665Z,23.45
2017-07-17T06:11:12.153Z,23.69
2017-07-17T06:13:39.617Z,23.95
2017-07-17T06:16:07.105Z,23.89
2017-07-17T06:18:34.641Z,24.08
2017-07-17T06:21:02.138Z,24.06
2017-07-17T06:23:29.705Z,24.09
2017-07-17T06:25:57.197Z,24.45
2017-07-17T06:28:24.658Z,24.28
2017-07-17T06:30:52.146Z,24.59
2017-07-17T06:33:19.628Z,24.58
2017-07-17T06:35:47.114Z,24.63
2017-07-17T06:38:14.590Z,24.83
2017-07-17T06:40:42.102Z,24.75
2017-07-17T06:43:09.562Z,24.75
2017-07-17T06:45:37.118Z,24.87
2017-07-17T06:48:04.682Z,24.86
2017-07-17T06:50:32.231Z,25.03
2017-07-17T06:52:59.731Z,25.21
2017-07-17T06:55:27.211Z,25.36
2017-07-17T06:57:54.715Z,25.23
2017-07-17T07:00:22.555Z,25.28
2017-07-17T07:02:50.049Z,25.43
2017-07-17T07:05:17.519Z,25.72
2017-07-17T07:07:45.071Z,25.78
2017-07-17T07:10:12.610Z,25.75
2017-07-17T07:12:40.162Z,25.73
2017-07-17T07:15:07.726Z,26.11
2017-07-17T07:17:35.279Z,25.90
2017-07-17T07:20:03.228Z,26.05
2017-07-17T07:22:30.754Z,26.16
2017-07-17T07:24:58.230Z,26.21
2017-07-17T07:27:25.860Z,26.54
2017-07-17T07:29:53.325Z,26.71
2017-07-17T07:32:20.795Z,26.72
2017-07-17T07:34:48.280Z,26.93
2017-07-17T07:37:15.751Z,27.12
2017-07-17T07:39:43.315Z,27.25
2017-07-17T07:42:10.789Z,27.35
2017-07-17T07:44:38.277Z,27.48
2017-07-17T07:47:05.784Z,27.64
2017-07-17T07:49:33.341Z,27.90
2017-07-17T07:52:00.885Z,28.02
2017-07-17T07:54:28.369Z,28.11
2017-07-17T07:56:55.838Z,28.39
2017-07-17T07:59:23.366Z,28.58
2017-07-17T08:01:50.838Z,28.80
2017-07-17T08:04:18.382Z,28.87
2017-07-17T08:06:45.970Z,28.45
2017-07-17T08:09:13.450Z,28.40
2017-07-17T08:11:40.957Z,28.32
2017-07-17T08:14:08.506Z,28.61
2017-07-17T08:16:36.018Z,28.95
2017-07-17T08:19:03.549Z,28.74
2017-07-17T08:21:31.136Z,28.91
2017-07-17T08:23:58.645Z,29.12
2017-07-17T08:26:26.143Z,29.25
2017-07-17T08:28:53.622Z,29.41
2017-07-17T08:31:21.226Z,29.46
2017-07-17T08:33:48.845Z,29.79
2017-07-17T08:36:16.341Z,29.62
2017-07-17T08:38:43.801Z,29.84
2017-07-17T08:41:11.298Z,30.07
2017-07-17T08:43:38.833Z,30.07
2017-07-17T08:46:06.885Z,30.29
2017-07-17T08:48:34.438Z,30.09
2017-07-17T08:51:02.214Z,30.13
2017-07-17T08:54:48.203Z,29.52
2017-07-17T08:57:15.758Z,29.37
2017-07-17T08:59:43.250Z,29.14
2017-07-17T09:02:10.931Z,29.14
2017-07-17T09:04:38.455Z,29.24
2017-07-17T09:07:05.946Z,29.28
2017-07-17T09:09:33.454Z,29.16
2017-07-17T09:12:01.009Z,29.47
2017-07-17T09:14:28.661Z,29.62
2017-07-17T09:16:56.235Z,29.88
2017-07-17T09:19:23.791Z,29.57
2017-07-17T09:21:51.345Z,29.63
2017-07-17T09:24:18.829Z,29.66
2017-07-17T09:26:46.290Z,29.40
2017-07-17T09:29:13.773Z,29.27
2017-07-17T09:31:41.237Z,29.56
2017-07-17T09:34:08.773Z,29.52
2017-07-17T09:36:36.236Z,29.56
2017-07-17T09:39:03.900Z,29.86
2017-07-17T09:41:31.361Z,30.13
2017-07-17T09:46:57.054Z,30.38
2017-07-17T09:49:24.596Z,30.41
2017-07-17T09:51:52.158Z,30.40
2017-07-17T09:54:19.641Z,30.24
2017-07-17T09:56:47.124Z,29.77
2017-07-17T09:59:14.627Z,29.41
2017-07-17T10:01:42.117Z,29.44
2017-07-17T10:04:09.604Z,29.59
2017-07-17T10:06:37.103Z,29.59
2017-07-17T10:09:04.625Z,29.10
2017-07-17T10:11:32.135Z,28.85
2017-07-17T10:13:59.598Z,29.06
2017-07-17T10:16:27.082Z,28.96
2017-07-17T10:18:54.550Z,28.48
2017-07-17T10:59:56.975Z,28.46
2017-07-17T11:02:24.465Z,28.43
2017-07-17T11:04:51.950Z,28.22
2017-07-17T11:07:19.481Z,28.04
2017-07-17T11:09:46.967Z,27.47
2017-07-17T11:12:14.454Z,28.28
2017-07-17T11:14:41.925Z,28.79
2017-07-17T11:17:09.609Z,28.93
2017-07-17T11:19:37.165Z,28.84
2017-07-17T11:22:04.769Z,28.60
2017-07-17T11:24:32.328Z,28.56
2017-07-17T11:26:59.889Z,28.64
2017-07-17T11:29:27.405Z,28.79
2017-07-17T11:31:54.930Z,28.98
2017-07-17T11:34:22.421Z,29.02
2017-07-17T11:36:49.881Z,29.18
2017-07-17T11:39:17.366Z,29.39
2017-07-17T11:41:44.833Z,29.14
2017-07-17T11:44:12.317Z,29.07
2017-07-17T11:56:51.038Z,29.37
2017-07-17T11:59:18.540Z,29.49
2017-07-17T12:01:46.001Z,29.30
2017-07-17T12:04:13.493Z,29.17
2017-07-17T12:06:40.958Z,28.95
2017-07-17T12:09:08.441Z,29.01
2017-07-17T12:11:35.897Z,28.81
2017-07-17T12:14:03.457Z,28.36
2017-07-17T12:16:30.915Z,28.65
2017-07-17T12:18:58.441Z,28.26
2017-07-17T12:21:25.997Z,28.26
2017-07-17T12:23:53.558Z,28.03
2017-07-17T12:26:21.054Z,28.33
2017-07-17T12:28:48.514Z,28.47
2017-07-17T12:31:16.038Z,28.35
2017-07-17T12:33:43.497Z,28.23
2017-07-17T12:36:10.994Z,28.38
2017-07-17T12:38:38.454Z,28.67
2017-07-17T12:41:05.971Z,28.85
2017-07-17T12:43:33.516Z,29.23
2017-07-17T12:46:01.025Z,28.98
2017-07-17T12:48:28.485Z,29.38
2017-07-17T12:50:56.033Z,29.68
2017-07-17T12:53:23.492Z,29.52
2017-07-17T12:55:51.006Z,29.41
2017-07-17T12:58:18.562Z,29.68
2017-07-17T13:00:46.066Z,30.03
2017-07-17T13:03:13.553Z,29.87
2017-07-17T13:05:41.054Z,29.48
2017-07-17T13:08:08.598Z,29.59
2017-07-17T13:10:36.165Z,30.08
2017-07-17T13:13:03.654Z,30.08
2017-07-17T13:15:31.777Z,30.21
2017-07-17T13:17:59.386Z,29.77
2017-07-17T13:20:26.845Z,29.91
2017-07-17T13:22:54.408Z,30.02
2017-07-17T13:25:21.914Z,30.00
2017-07-17T13:27:49.396Z,29.28
2017-07-17T13:30:16.930Z,29.15
2017-07-17T13:32:44.493Z,28.79
2017-07-17T13:35:12.070Z,28.96
2017-07-17T13:37:39.652Z,29.12
2017-07-17T13:40:07.287Z,28.91
2017-07-17T13:42:34.841Z,28.78
2017-07-17T13:45:02.377Z,28.72
2017-07-17T13:47:29.940Z,28.87
2017-07-17T13:49:57.445Z,28.79
2017-07-17T13:52:24.957Z,28.80
2017-07-17T13:54:52.412Z,28.91
2017-07-17T13:57:19.977Z,28.87
2017-07-17T13:59:47.537Z,29.16
2017-07-17T14:02:15.090Z,29.09
2017-07-17T14:04:42.644Z,28.95
2017-07-17T14:07:13.150Z,28.91
2017-07-17T14:09:40.763Z,28.90
2017-07-17T14:12:08.298Z,28.72
2017-07-17T14:14:35.852Z,28.47
2017-07-17T14:17:03.413Z,28.65
2017-07-17T14:19:30.894Z,28.65
2017-07-17T14:21:58.545Z,28.41
2017-07-17T14:24:26.089Z,28.63
2017-07-17T14:26:53.645Z,28.73
2017-07-17T14:29:21.137Z,28.71
2017-07-17T14:31:48.597Z,28.48
2017-07-17T14:34:16.121Z,28.57
2017-07-17T14:36:43.682Z,28.60
2017-07-17T14:39:11.237Z,28.81
2017-07-17T14:41:38.792Z,28.63
2017-07-17T14:44:06.270Z,28.47
2017-07-17T14:46:33.745Z,28.80
2017-07-17T14:49:01.221Z,28.71
2017-07-17T14:51:28.744Z,28.58
2017-07-17T14:53:56.255Z,28.32
2017-07-17T14:56:23.742Z,28.49
2017-07-17T14:58:51.297Z,28.60
2017-07-17T15:01:18.869Z,28.90
2017-07-17T15:03:46.325Z,28.85
2017-07-17T15:06:13.892Z,28.60
2017-07-17T15:08:41.353Z,28.74
2017-07-17T15:11:08.832Z,28.82
2017-07-17T15:13:36.409Z,28.57
2017-07-17T15:16:03.886Z,28.61
2017-07-17T15:18:31.362Z,28.61
2017-07-17T15:20:58.912Z,28.23
2017-07-17T15:23:27.344Z,28.21
2017-07-17T15:25:54.893Z,28.27
2017-07-17T15:28:22.366Z,28.16
2017-07-17T15:30:49.869Z,28.29
2017-07-17T15:33:17.432Z,28.29
2017-07-17T15:35:44.993Z,28.39
2017-07-17T15:38:12.546Z,28.45
2017-07-17T15:40:40.118Z,28.38
2017-07-17T15:43:07.662Z,28.33
2017-07-17T15:45:35.163Z,28.19
2017-07-17T15:48:02.686Z,28.46
2017-07-17T15:50:30.169Z,28.16
2017-07-17T15:52:57.702Z,27.87
2017-07-17T15:55:25.249Z,27.89
2017-07-17T15:57:52.709Z,28.04
2017-07-17T16:00:20.270Z,27.88
2017-07-17T16:02:47.758Z,27.67
2017-07-17T16:05:15.326Z,27.77
2017-07-17T16:07:42.837Z,28.01
2017-07-17T16:10:10.412Z,27.94
2017-07-17T16:12:37.962Z,27.74
2017-07-17T16:15:05.600Z,28.00
2017-07-17T16:17:33.094Z,28.16
2017-07-17T16:20:00.565Z,28.00
2017-07-17T16:22:28.046Z,27.85
2017-07-17T16:24:55.556Z,27.94
2017-07-17T16:27:23.028Z,27.85
2017-07-17T16:29:50.608Z,27.82
2017-07-17T16:32:18.115Z,27.70
2017-07-17T16:34:45.573Z,27.70
2017-07-17T16:37:13.079Z,27.65
2017-07-17T16:39:40.592Z,27.92
2017-07-17T16:42:08.078Z,27.84
2017-07-17T16:44:35.551Z,27.85
2017-07-17T16:47:03.037Z,27.58
2017-07-17T16:49:30.529Z,27.76
2017-07-17T16:51:58.008Z,27.67
2017-07-17T16:54:25.494Z,27.78
2017-07-17T16:56:52.989Z,27.65
2017-07-17T16:59:20.458Z,27.71
2017-07-17T17:01:48.001Z,27.51
2017-07-17T17:04:15.510Z,27.44
2017-07-17T17:06:42.982Z,27.61
2017-07-17T17:09:10.487Z,27.52
2017-07-17T17:11:37.945Z,27.84
2017-07-17T17:14:05.494Z,27.76
2017-07-17T17:16:32.958Z,27.86
2017-07-17T17:19:00.502Z,27.63
2017-07-17T17:21:27.972Z,27.78
2017-07-17T17:23:55.461Z,27.64
2017-07-17T17:26:22.926Z,27.51
2017-07-17T17:28:50.405Z,27.60
2017-07-17T17:31:17.939Z,27.44
2017-07-17T17:33:45.441Z,27.35
2017-07-17T17:36:12.919Z,27.23
2017-07-17T17:38:40.528Z,27.30
2017-07-17T17:41:07.986Z,27.27
2017-07-17T17:43:35.460Z,27.42
2017-07-17T17:46:02.942Z,27.32
2017-07-17T17:48:30.465Z,27.40
2017-07-17T17:50:57.938Z,27.42
2017-07-17T17:53:25.420Z,27.37
2017-07-17T17:55:52.953Z,27.23
2017-07-17T17:58:20.449Z,27.05
2017-07-17T18:00:47.912Z,27.37
2017-07-17T18:03:15.833Z,27.45
2017-07-17T18:05:43.357Z,27.28
2017-07-17T18:08:10.837Z,26.89
2017-07-17T18:10:38.339Z,26.70
2017-07-17T18:13:05.885Z,26.98
2017-07-17T18:15:33.384Z,27.11
2017-07-17T18:18:00.850Z,27.28
2017-07-17T18:20:28.363Z,27.13
2017-07-17T18:22:55.910Z,27.05
2017-07-17T18:25:23.398Z,26.98
2017-07-17T18:27:50.925Z,26.43
2017-07-17T18:30:18.486Z,26.17
2017-07-17T18:32:45.949Z,26.20
2017-07-17T18:35:13.429Z,26.35
2017-07-17T18:37:40.961Z,26.50
2017-07-17T18:40:08.443Z,26.32
2017-07-17T18:42:35.905Z,26.66
2017-07-17T18:45:03.473Z,26.31
2017-07-17T18:47:30.989Z,26.22
2017-07-17T18:49:58.591Z,25.75
2017-07-17T18:52:26.258Z,25.69
2017-07-17T18:54:53.771Z,25.29
2017-07-17T18:57:21.333Z,25.20
2017-07-17T18:59:48.881Z,25.28
2017-07-17T19:02:16.441Z,25.66
2017-07-17T19:04:43.997Z,25.64
2017-07-17T19:07:11.493Z,25.72
2017-07-17T19:09:39.020Z,25.73
2017-07-17T19:12:06.502Z,25.76
2017-07-17T19:14:33.969Z,25.24
2017-07-17T19:17:01.489Z,24.69
2017-07-17T19:19:29.091Z,24.21
2017-07-17T19:21:56.649Z,24.35
2017-07-17T19:24:24.119Z,24.25
2017-07-17T19:26:51.596Z,24.01
2017-07-17T19:29:19.082Z,23.78
2017-07-17T19:31:46.562Z,23.98
2017-07-17T19:34:14.099Z,23.68
2017-07-17T19:36:41.649Z,23.89
2017-07-17T19:39:09.209Z,23.85
2017-07-17T19:41:36.689Z,23.46
2017-07-17T19:44:04.150Z,23.52
2017-07-17T19:46:31.686Z,23.38
2017-07-17T19:48:59.165Z,23.43
2017-07-17T19:51:26.702Z,23.50
2017-07-17T19:53:54.253Z,23.49
2017-07-17T19:56:21.726Z,23.59
2017-07-17T19:58:49.185Z,23.74
2017-07-17T20:01:16.729Z,23.70
2017-07-17T20:03:44.205Z,23.54
2017-07-17T20:06:11.670Z,23.67
2017-07-17T20:08:39.197Z,23.47
2017-07-17T20:11:06.658Z,23.39
2017-07-17T20:13:34.262Z,23.38
2017-07-17T20:16:01.785Z,23.53
2017-07-17T20:18:29.736Z,23.49
2017-07-17T20:20:57.300Z,23.25
2017-07-17T20:23:24.780Z,23.35
2017-07-17T20:25:52.318Z,23.39
2017-07-17T20:28:19.802Z,23.13
2017-07-17T20:30:47.285Z,23.24
2017-07-17T20:33:14.789Z,23.25
2017-07-17T20:35:42.300Z,23.23
2017-07-17T20:38:09.798Z,23.16
2017-07-17T20:40:37.361Z,23.46
2017-07-17T20:43:04.941Z,23.13
2017-07-17T20:45:32.401Z,23.31
2017-07-17T20:47:59.939Z,23.32
2017-07-17T20:50:27.486Z,23.39
2017-07-17T20:52:55.157Z,23.37
2017-07-17T20:55:22.622Z,23.49
2017-07-17T20:57:50.176Z,23.54
2017-07-17T21:00:17.726Z,23.33
2017-07-17T21:02:45.290Z,23.03
2017-07-17T21:05:12.849Z,23.30
2017-07-17T21:07:40.346Z,23.48
2017-07-17T21:10:07.833Z,22.61
2017-07-17T21:12:35.304Z,22.39
2017-07-17T21:15:02.809Z,22.63
2017-07-17T21:17:30.376Z,22.36
2017-07-17T21:19:57.861Z,22.59
2017-07-17T21:22:25.349Z,22.84
2017-07-17T21:24:52.909Z,23.19
2017-07-17T21:27:20.367Z,22.92
2017-07-17T21:29:47.849Z,22.76
2017-07-17T21:32:15.316Z,22.82
2017-07-17T21:34:42.834Z,23.36
2017-07-17T21:37:10.293Z,23.28
2017-07-17T21:39:37.846Z,22.90
2017-07-17T21:42:05.329Z,22.99
2017-07-17T21:44:33.585Z,23.03
2017-07-17T21:47:01.196Z,22.88
2017-07-17T21:49:28.697Z,22.99
2017-07-17T21:51:56.250Z,23.15
2017-07-17T21:54:23.730Z,23.18
2017-07-17T21:56:51.194Z,22.61
2017-07-17T21:59:18.684Z,22.75
2017-07-17T22:01:46.181Z,23.13
2017-07-17T22:04:13.686Z,23.22
2017-07-17T22:06:41.174Z,22.97
2017-07-17T22:09:08.657Z,23.02
2017-07-17T22:11:36.260Z,22.66
2017-07-17T22:14:03.731Z,22.77
2017-07-17T22:16:31.281Z,22.81
2017-07-17T22:18:58.740Z,22.38
2017-07-17T22:21:26.217Z,22.30
2017-07-17T22:23:53.729Z,22.18
2017-07-17T22:26:21.218Z,22.45
2017-07-17T22:28:48.722Z,22.43
2017-07-17T22:31:16.273Z,22.18
2017-07-17T22:33:43.732Z,22.08
2017-07-17T22:36:11.336Z,22.47
2017-07-17T22:38:38.802Z,22.31
2017-07-17T22:41:06.305Z,22.13
2017-07-17T22:43:33.861Z,22.03
2017-07-17T22:46:01.372Z,22.32
2017-07-17T22:48:28.836Z,22.40
2017-07-17T22:50:56.329Z,22.14
2017-07-17T22:53:23.825Z,22.15
2017-07-17T22:55:51.324Z,22.49
2017-07-17T22:58:18.949Z,22.17
2017-07-17T23:00:46.433Z,22.15
2017-07-17T23:03:13.922Z,22.14
2017-07-17T23:05:41.425Z,21.64
2017-07-17T23:08:08.915Z,21.37
2017-07-17T23:10:36.374Z,21.18
2017-07-17T23:13:03.865Z,21.10
2017-07-17T23:15:31.412Z,21.25
2017-07-17T23:17:58.997Z,20.99
2017-07-17T23:20:26.470Z,20.93
2017-07-17T23:22:53.957Z,20.80
2017-07-17T23:25:21.444Z,20.80
2017-07-17T23:27:48.999Z,20.59
2017-07-17T23:30:16.567Z,20.61
2017-07-17T23:32:44.046Z,20.49
2017-07-17T23:35:11.510Z,20.53
2017-07-17T23:37:39.049Z,20.80
2017-07-17T23:40:06.588Z,20.52
2017-07-17T23:42:34.083Z,20.48
2017-07-17T23:45:01.574Z,20.54
2017-07-17T23:47:29.185Z,20.58
2017-07-17T23:49:56.768Z,20.81
2017-07-17T23:52:24.250Z,20.85
2017-07-17T23:54:51.709Z,20.87
2017-07-17T23:57:19.188Z,20.55
2017-07-17T23:59:46.695Z,20.35
